Time;durP1;ratioP1;P1;durP2;ratioP2;P2;SDS_P1;SDS_P2;PMS_P1;PMS_P2;Temp;Humidity;BMP_temperature;BMP_pressure;BME280_temperature;BME280_humidity;BME280_pressure;Samples;Min_cycle;Max_cycle;Signal;HPM_P1;HPM_P2
2020/12/11 00:00:14;;;;;;;26.13;12.90;;;0.00;98.70;;;;;;5035484;28;20438;-53
2020/12/11 00:02:40;;;;;;;28.73;13.17;;;-0.10;98.70;;;;;;5025839;28;20459;-52
2020/12/11 00:05:06;;;;;;;21.13;12.50;;;-0.10;98.90;;;;;;5034920;28;20204;-52
2020/12/11 00:07:39;;;;;;;24.50;13.60;;;0.00;99.00;;;;;;5031602;28;20216;-52
2020/12/11 00:10:10;;;;;;;25.60;12.50;;;0.00;99.20;;;;;;5032802;28;20194;-53
2020/12/11 00:12:36;;;;;;;26.90;13.43;;;0.00;99.30;;;;;;5029797;28;20440;-53
2020/12/11 00:15:05;;;;;;;30.70;15.10;;;0.00;99.40;;;;;;5030236;28;20793;-52
2020/12/11 00:17:31;;;;;;;29.97;14.70;;;0.00;99.30;;;;;;5035809;28;20483;-52
2020/12/11 00:19:56;;;;;;;25.73;14.33;;;-0.10;99.30;;;;;;5031602;28;20432;-53
2020/12/11 00:22:26;;;;;;;30.93;14.60;;;0.00;99.40;;;;;;5038424;28;20185;-53
2020/12/11 00:24:52;;;;;;;28.70;15.03;;;0.00;99.70;;;;;;5024827;28;20177;-55
2020/12/11 00:27:18;;;;;;;31.77;15.70;;;0.00;99.80;;;;;;5029647;28;20533;-54
2020/12/11 00:29:44;;;;;;;31.60;14.90;;;0.00;99.90;;;;;;5029604;28;21026;-54
2020/12/11 00:32:09;;;;;;;29.50;15.30;;;-0.10;99.70;;;;;;5024859;28;20439;-52
2020/12/11 00:34:35;;;;;;;31.87;14.57;;;-0.10;99.70;;;;;;5028869;28;20492;-53
2020/12/11 00:37:02;;;;;;;32.83;15.77;;;0.00;99.80;;;;;;5026334;28;20186;-54
2020/12/11 00:39:27;;;;;;;31.73;14.30;;;-0.10;99.70;;;;;;5028945;28;20428;-54
2020/12/11 00:41:54;;;;;;;31.37;15.90;;;-0.10;99.70;;;;;;5032885;28;20754;-53
2020/12/11 00:44:20;;;;;;;31.37;16.40;;;-0.10;99.90;;;;;;5029994;28;20613;-53
2020/12/11 00:46:46;;;;;;;31.10;14.80;;;-0.10;99.90;;;;;;5032569;28;20456;-53
2020/12/11 00:49:12;;;;;;;34.03;14.43;;;-0.10;99.90;;;;;;5023672;28;20946;-53
2020/12/11 00:51:37;;;;;;;29.30;14.67;;;-0.10;99.90;;;;;;5031893;28;20193;-53
2020/12/11 00:54:03;;;;;;;34.93;16.33;;;-0.10;99.90;;;;;;5023037;28;20698;-52
2020/12/11 00:56:29;;;;;;;42.70;16.80;;;-0.10;99.90;;;;;;5030537;28;20193;-53
2020/12/11 00:58:54;;;;;;;35.27;15.20;;;-0.10;99.90;;;;;;5023902;28;20220;-53
2020/12/11 01:01:20;;;;;;;34.13;15.13;;;-0.10;99.90;;;;;;5028037;28;20189;-52
2020/12/11 01:03:46;;;;;;;34.17;16.70;;;-0.10;99.90;;;;;;5027979;28;20200;-53
2020/12/11 01:06:11;;;;;;;34.47;17.63;;;-0.10;99.90;;;;;;5028155;28;20433;-54
2020/12/11 01:08:37;;;;;;;31.60;15.77;;;-0.10;99.90;;;;;;5004420;28;20233;-52
2020/12/11 01:11:03;;;;;;;33.53;14.97;;;-0.10;99.90;;;;;;5028272;28;20184;-53
2020/12/11 01:13:28;;;;;;;32.80;16.47;;;-0.10;99.90;;;;;;5033361;28;20196;-55
2020/12/11 01:15:54;;;;;;;33.10;14.67;;;-0.10;99.90;;;;;;5026121;28;20532;-53
2020/12/11 01:18:20;;;;;;;35.33;15.30;;;-0.10;99.80;;;;;;5033235;28;20209;-53
2020/12/11 01:20:46;;;;;;;34.90;15.47;;;-0.10;99.80;;;;;;5025412;28;20184;-53
2020/12/11 01:23:11;;;;;;;35.23;15.40;;;-0.20;99.80;;;;;;5032300;28;20437;-53
2020/12/11 01:25:37;;;;;;;34.33;15.47;;;-0.20;99.90;;;;;;5023334;28;20185;-53
2020/12/11 01:28:04;;;;;;;33.67;14.10;;;-0.30;99.90;;;;;;5034202;28;20776;-54
2020/12/11 01:30:30;;;;;;;32.67;15.20;;;-0.20;99.90;;;;;;5031364;28;20258;-53
2020/12/11 01:32:56;;;;;;;27.70;14.30;;;-0.30;99.90;;;;;;5032237;28;20442;-53
2020/12/11 01:35:21;;;;;;;33.47;14.83;;;-0.30;99.90;;;;;;5027590;28;20416;-52
2020/12/11 01:37:47;;;;;;;31.83;14.30;;;-0.30;99.90;;;;;;5029559;28;20520;-53
2020/12/11 01:40:13;;;;;;;33.30;14.60;;;-0.30;99.90;;;;;;5025075;28;20210;-53
2020/12/11 01:42:38;;;;;;;34.03;14.83;;;-0.30;99.90;;;;;;5022632;28;20641;-52
2020/12/11 01:45:05;;;;;;;34.97;15.70;;;-0.30;99.90;;;;;;5033400;28;20177;-52
2020/12/11 01:47:30;;;;;;;34.93;16.00;;;-0.30;99.90;;;;;;5029435;28;20259;-52
2020/12/11 01:49:56;;;;;;;28.93;14.73;;;-0.30;99.90;;;;;;5022997;28;20452;-54
2020/12/11 01:52:22;;;;;;;31.57;15.33;;;-0.20;99.90;;;;;;5023589;28;20650;-53
2020/12/11 01:54:48;;;;;;;27.97;14.00;;;-0.20;99.90;;;;;;5024063;28;20187;-53
2020/12/11 01:57:27;;;;;;;30.30;15.10;;;-0.20;99.90;;;;;;5020277;28;20427;-54
2020/12/11 01:59:54;;;;;;;32.30;14.70;;;-0.20;99.90;;;;;;5028951;28;20309;-54
2020/12/11 02:02:26;;;;;;;26.47;13.30;;;-0.20;99.80;;;;;;5021928;28;20520;-52
2020/12/11 02:04:52;;;;;;;26.87;13.60;;;-0.30;99.90;;;;;;5025953;28;20506;-52
2020/12/11 02:07:20;;;;;;;30.00;14.93;;;-0.30;99.90;;;;;;5032057;28;20411;-52
2020/12/11 02:09:46;;;;;;;31.90;14.60;;;-0.30;99.90;;;;;;5028114;28;20585;-53
2020/12/11 02:12:12;;;;;;;28.90;14.57;;;-0.30;99.90;;;;;;5028325;28;20500;-53
2020/12/11 02:14:38;;;;;;;27.03;13.23;;;-0.30;99.80;;;;;;5011774;28;20523;-54
2020/12/11 02:17:05;;;;;;;26.40;13.90;;;-0.30;99.80;;;;;;5029011;28;20491;-53
2020/12/11 02:19:35;;;;;;;29.40;13.97;;;-0.40;99.60;;;;;;5028453;28;20321;-53
2020/12/11 02:22:02;;;;;;;27.30;12.97;;;-0.40;99.80;;;;;;5027442;28;20493;-54
2020/12/11 02:24:28;;;;;;;29.73;13.87;;;-0.40;99.80;;;;;;5024347;28;20434;-52
2020/12/11 02:26:58;;;;;;;27.93;13.03;;;-0.50;99.40;;;;;;5027684;28;20683;-54
2020/12/11 02:29:24;;;;;;;29.37;13.63;;;-0.50;99.50;;;;;;5037144;28;20442;-54
2020/12/11 02:31:51;;;;;;;29.70;14.17;;;-0.50;99.50;;;;;;5035162;28;20435;-55
2020/12/11 02:34:17;;;;;;;33.00;14.07;;;-0.50;99.50;;;;;;5027792;28;20445;-54
2020/12/11 02:36:43;;;;;;;29.67;14.40;;;-0.50;99.80;;;;;;5040649;28;20440;-54
2020/12/11 02:39:09;;;;;;;28.30;13.50;;;-0.50;99.90;;;;;;5031046;28;20473;-54
2020/12/11 02:41:35;;;;;;;26.80;13.23;;;-0.50;99.90;;;;;;5027383;28;20936;-54
2020/12/11 02:44:04;;;;;;;26.00;13.13;;;-0.50;99.70;;;;;;5026339;28;20451;-53
2020/12/11 02:46:30;;;;;;;26.20;13.40;;;-0.50;99.50;;;;;;5031840;28;20177;-53
2020/12/11 02:48:56;;;;;;;28.40;13.53;;;-0.60;99.50;;;;;;5035792;28;21110;-55
2020/12/11 02:51:22;;;;;;;28.00;13.57;;;-0.60;99.50;;;;;;5028855;28;20549;-54
2020/12/11 02:53:50;;;;;;;26.97;13.90;;;-0.60;99.50;;;;;;5019113;28;20477;-53
2020/12/11 02:56:20;;;;;;;29.63;13.63;;;-0.60;99.80;;;;;;5028210;28;20203;-54
2020/12/11 02:58:46;;;;;;;25.80;13.50;;;-0.60;99.80;;;;;;5034217;28;20525;-53
2020/12/11 03:01:12;;;;;;;29.70;14.40;;;-0.60;99.90;;;;;;5034514;28;20436;-54
2020/12/11 03:03:38;;;;;;;27.73;14.03;;;-0.60;99.90;;;;;;5028236;28;20429;-53
2020/12/11 03:06:04;;;;;;;29.23;13.90;;;-0.60;99.90;;;;;;5008616;28;20683;-52
2020/12/11 03:08:33;;;;;;;30.80;13.70;;;-0.60;99.80;;;;;;5028231;28;20220;-55
2020/12/11 03:10:58;;;;;;;28.83;13.17;;;-0.60;99.80;;;;;;5028802;28;20186;-52
2020/12/11 03:13:24;;;;;;;31.83;14.80;;;-0.60;99.80;;;;;;5039887;28;20451;-54
2020/12/11 03:15:50;;;;;;;28.43;12.70;;;-0.60;99.40;;;;;;5031916;28;20957;-51
2020/12/11 03:18:15;;;;;;;30.93;14.57;;;-0.70;99.60;;;;;;5039967;28;20263;-54
2020/12/11 03:20:41;;;;;;;22.80;12.40;;;-0.80;99.80;;;;;;5037360;28;20184;-55
2020/12/11 03:23:07;;;;;;;25.43;13.20;;;-0.80;99.90;;;;;;5037242;28;20236;-54
2020/12/11 03:25:36;;;;;;;27.20;14.30;;;-0.70;99.90;;;;;;5025279;28;20969;-52
2020/12/11 03:28:02;;;;;;;29.83;13.70;;;-0.70;99.90;;;;;;5036905;28;20430;-53
2020/12/11 03:30:31;;;;;;;28.43;14.00;;;-0.70;99.90;;;;;;5030110;28;20431;-53
2020/12/11 03:32:56;;;;;;;26.33;13.80;;;-0.80;99.90;;;;;;5018740;28;20464;-52
2020/12/11 03:35:22;;;;;;;26.87;13.90;;;-0.70;99.90;;;;;;5034696;28;20940;-53
2020/12/11 03:37:47;;;;;;;28.43;14.13;;;-0.70;99.90;;;;;;5031244;28;20210;-53
2020/12/11 03:40:14;;;;;;;28.67;14.67;;;-0.70;99.90;;;;;;5029235;28;20184;-52
2020/12/11 03:42:39;;;;;;;31.60;13.40;;;-0.70;99.90;;;;;;5035253;28;20200;-53
2020/12/11 03:45:05;;;;;;;34.00;15.50;;;-0.70;99.90;;;;;;5035731;28;20462;-51
2020/12/11 03:47:32;;;;;;;32.73;15.70;;;-0.70;99.90;;;;;;5033387;28;20251;-52
2020/12/11 03:49:58;;;;;;;29.43;13.17;;;-0.70;99.90;;;;;;5032002;28;20184;-52
2020/12/11 03:52:30;;;;;;;28.17;14.20;;;-0.70;99.90;;;;;;5029684;28;20444;-52
2020/12/11 03:54:59;;;;;;;28.37;13.67;;;-0.70;99.90;;;;;;5038303;28;20432;-53
2020/12/11 03:57:24;;;;;;;26.47;13.90;;;-0.70;99.90;;;;;;5029002;28;20455;-53
2020/12/11 03:59:50;;;;;;;26.00;13.73;;;-0.60;99.90;;;;;;5035407;28;20438;-54
2020/12/11 04:02:17;;;;;;;29.57;14.73;;;-0.60;99.90;;;;;;5030597;28;20423;-52
2020/12/11 04:04:43;;;;;;;26.77;13.67;;;-0.60;99.90;;;;;;5028980;28;20187;-52
2020/12/11 04:07:10;;;;;;;27.13;14.00;;;-0.70;99.90;;;;;;5031195;28;20877;-54
2020/12/11 04:09:36;;;;;;;27.13;12.93;;;-0.70;99.90;;;;;;5035437;28;20433;-54
2020/12/11 04:12:02;;;;;;;28.50;12.70;;;-0.70;99.70;;;;;;5027559;28;20439;-54
2020/12/11 04:14:28;;;;;;;27.57;13.07;;;-0.80;99.50;;;;;;5040407;28;20192;-52
2020/12/11 04:16:54;;;;;;;26.43;13.67;;;-0.80;99.40;;;;;;5036260;28;20186;-53
2020/12/11 04:19:20;;;;;;;28.67;13.10;;;-0.80;99.60;;;;;;5015254;28;21019;-53
2020/12/11 04:21:53;;;;;;;29.07;14.03;;;-0.80;99.80;;;;;;5028726;28;20186;-52
2020/12/11 04:24:20;;;;;;;28.60;14.03;;;-0.80;99.90;;;;;;5030879;28;20446;-53
2020/12/11 04:26:45;;;;;;;31.47;15.13;;;-0.90;99.80;;;;;;5035954;28;20430;-53
2020/12/11 04:29:11;;;;;;;27.57;13.40;;;-0.90;99.90;;;;;;5029086;28;20465;-53
2020/12/11 04:31:38;;;;;;;35.07;14.20;;;-0.90;99.90;;;;;;5027915;28;20192;-54
2020/12/11 04:34:04;;;;;;;29.57;15.17;;;-0.90;99.90;;;;;;5044832;28;20500;-51
2020/12/11 04:36:30;;;;;;;31.40;15.60;;;-0.90;99.90;;;;;;5029948;28;20435;-52
2020/12/11 04:38:56;;;;;;;32.80;15.07;;;-0.90;99.90;;;;;;5032771;28;20467;-56
2020/12/11 04:41:26;;;;;;;27.70;13.93;;;-0.90;99.90;;;;;;5039021;28;20936;-53
2020/12/11 04:43:51;;;;;;;30.80;15.40;;;-0.90;99.90;;;;;;5048949;28;20184;-52
2020/12/11 04:46:17;;;;;;;28.20;14.10;;;-0.90;99.90;;;;;;5030886;28;20812;-54
2020/12/11 04:48:43;;;;;;;28.80;14.37;;;-1.00;99.90;;;;;;5019520;28;20298;-54
2020/12/11 04:51:09;;;;;;;29.73;13.73;;;-1.00;99.90;;;;;;5012746;28;20610;-53
2020/12/11 04:53:37;;;;;;;27.63;12.23;;;-1.00;99.90;;;;;;5016321;28;20441;-53
2020/12/11 04:56:05;;;;;;;27.23;13.77;;;-1.00;99.90;;;;;;5023987;28;20468;-52
2020/12/11 04:58:33;;;;;;;31.17;13.60;;;-1.00;99.90;;;;;;5020112;28;20538;-52
2020/12/11 05:01:05;;;;;;;26.00;14.20;;;-1.10;99.90;;;;;;5023849;28;20441;-54
2020/12/11 05:03:33;;;;;;;25.97;13.10;;;-1.10;99.90;;;;;;5030044;28;20949;-53
2020/12/11 05:06:05;;;;;;;32.47;14.80;;;-1.10;99.90;;;;;;5022330;28;20809;-55
2020/12/11 05:08:31;;;;;;;27.97;13.77;;;-1.10;99.90;;;;;;5018108;28;20485;-53
2020/12/11 05:10:58;;;;;;;30.93;15.10;;;-1.10;99.90;;;;;;5012365;28;20461;-53
2020/12/11 05:13:25;;;;;;;32.80;14.87;;;-1.10;99.90;;;;;;5023399;28;20640;-52
2020/12/11 05:16:10;;;;;;;29.97;14.03;;;-1.10;99.90;;;;;;5033495;28;20448;-52
2020/12/11 05:18:37;;;;;;;29.10;14.97;;;-1.10;99.90;;;;;;5022807;28;20471;-52
2020/12/11 05:21:26;;;;;;;32.87;14.80;;;-1.10;99.90;;;;;;5019852;28;20427;-52
2020/12/11 05:23:58;;;;;;;29.97;14.23;;;-1.00;99.90;;;;;;5017359;28;20442;-54
2020/12/11 05:26:24;;;;;;;29.57;14.60;;;-1.00;99.90;;;;;;5025628;28;20428;-50
2020/12/11 05:28:50;;;;;;;39.90;16.20;;;-1.00;99.90;;;;;;5016663;28;20545;-54
2020/12/11 05:31:16;;;;;;;34.03;15.30;;;-1.00;99.90;;;;;;5016644;28;20448;-53
2020/12/11 05:34:05;;;;;;;31.37;16.20;;;-1.00;99.90;;;;;;5025970;28;21020;-57
2020/12/11 05:36:52;;;;;;;33.30;16.80;;;-1.00;99.90;;;;;;5031909;28;20176;-53
2020/12/11 05:39:32;;;;;;;28.37;13.93;;;-1.00;99.90;;;;;;5022939;28;20543;-54
2020/12/11 05:42:02;;;;;;;31.43;15.50;;;-1.00;99.90;;;;;;5022160;28;20482;-53
2020/12/11 05:44:32;;;;;;;31.90;15.07;;;-1.00;99.90;;;;;;5021768;28;20509;-54
2020/12/11 05:47:15;;;;;;;30.07;15.17;;;-0.90;99.90;;;;;;5022942;28;20636;-53
2020/12/11 05:49:44;;;;;;;26.10;13.87;;;-0.90;99.90;;;;;;5016008;28;20436;-55
2020/12/11 05:52:11;;;;;;;25.20;13.00;;;-0.90;99.90;;;;;;5022683;28;20874;-53
2020/12/11 05:54:45;;;;;;;29.87;13.40;;;-0.90;99.90;;;;;;5023481;28;20435;-52
2020/12/11 05:57:13;;;;;;;32.07;15.63;;;-0.90;99.90;;;;;;5028828;28;20534;-52
2020/12/11 05:59:39;;;;;;;29.10;14.47;;;-1.00;99.90;;;;;;5016676;28;20430;-54
2020/12/11 06:02:05;;;;;;;31.50;14.80;;;-1.00;99.90;;;;;;5021807;28;20432;-53
2020/12/11 06:04:31;;;;;;;27.73;15.07;;;-1.00;99.90;;;;;;5016993;28;20429;-54
2020/12/11 06:06:57;;;;;;;30.40;15.50;;;-1.00;99.90;;;;;;5026716;28;20205;-50
2020/12/11 06:09:37;;;;;;;30.03;15.20;;;-0.90;99.90;;;;;;5015560;28;20472;-53
2020/12/11 06:12:04;;;;;;;33.17;14.53;;;-0.90;99.90;;;;;;5026827;28;20443;-52
2020/12/11 06:15:02;;;;;;;29.27;14.97;;;-0.80;99.90;;;;;;5031708;28;20817;-52
2020/12/11 06:17:33;;;;;;;30.83;15.03;;;-0.90;99.90;;;;;;5010022;28;20471;-53
2020/12/11 06:20:01;;;;;;;29.53;14.53;;;-0.90;99.90;;;;;;5019755;28;20424;-52
2020/12/11 06:22:27;;;;;;;26.97;13.77;;;-0.80;99.90;;;;;;5015708;28;20427;-52
2020/12/11 06:24:52;;;;;;;32.33;14.90;;;-0.80;99.90;;;;;;5009816;28;21289;-52
2020/12/11 06:27:30;;;;;;;30.20;15.07;;;-0.80;99.80;;;;;;5020018;28;20266;-52
2020/12/11 06:29:56;;;;;;;26.97;13.90;;;-0.90;99.60;;;;;;5013284;28;20664;-53
2020/12/11 06:32:33;;;;;;;33.00;13.93;;;-0.90;99.60;;;;;;5014297;28;20423;-53
2020/12/11 06:35:13;;;;;;;34.27;16.40;;;-0.90;99.70;;;;;;5020504;28;20523;-53
2020/12/11 06:37:40;;;;;;;32.03;15.30;;;-0.90;99.80;;;;;;5023745;28;20484;-52
2020/12/11 06:40:10;;;;;;;30.70;15.20;;;-0.90;99.90;;;;;;5023079;28;20430;-53
2020/12/11 06:42:35;;;;;;;33.63;15.47;;;-0.90;99.90;;;;;;5003142;28;20439;-53
2020/12/11 06:45:30;;;;;;;31.17;15.20;;;-0.90;99.80;;;;;;5018824;28;20493;-52
2020/12/11 06:47:59;;;;;;;33.73;16.33;;;-1.00;99.90;;;;;;5006115;28;20217;-54
2020/12/11 06:50:26;;;;;;;30.30;14.83;;;-1.00;99.90;;;;;;5022422;28;20462;-52
2020/12/11 06:52:55;;;;;;;35.40;15.93;;;-1.00;99.90;;;;;;5021685;28;20438;-53
2020/12/11 06:55:22;;;;;;;34.43;15.60;;;-1.00;99.90;;;;;;5024832;28;20449;-51
2020/12/11 06:57:49;;;;;;;32.20;15.30;;;-1.00;99.90;;;;;;5021546;28;20470;-53
2020/12/11 07:00:29;;;;;;;36.63;16.37;;;-1.00;99.90;;;;;;5017722;28;20882;-52
2020/12/11 07:03:15;;;;;;;33.87;15.40;;;-1.00;99.90;;;;;;5024821;28;20427;-52
2020/12/11 07:05:44;;;;;;;37.53;15.43;;;-1.00;99.90;;;;;;5023307;28;20440;-53
2020/12/11 07:08:13;;;;;;;33.80;15.83;;;-1.00;99.90;;;;;;5020302;28;20473;-53
2020/12/11 07:10:40;;;;;;;31.53;15.50;;;-1.00;99.90;;;;;;5020283;28;20486;-53
2020/12/11 07:13:10;;;;;;;33.50;15.83;;;-1.00;99.90;;;;;;5017978;28;20940;-53
2020/12/11 07:15:37;;;;;;;35.33;14.80;;;-1.00;99.90;;;;;;5020310;28;20441;-59
2020/12/11 07:18:04;;;;;;;31.83;15.90;;;-1.00;99.90;;;;;;5021454;28;20473;-51
2020/12/11 07:20:34;;;;;;;38.00;15.50;;;-1.00;99.90;;;;;;5021676;28;20952;-51
2020/12/11 07:23:03;;;;;;;30.40;14.50;;;-1.00;99.90;;;;;;5021449;28;20519;-53
2020/12/11 07:25:29;;;;;;;32.10;15.33;;;-1.00;99.90;;;;;;5018052;28;20182;-53
2020/12/11 07:28:02;;;;;;;34.80;15.80;;;-1.00;99.90;;;;;;5023801;28;20470;-53
2020/12/11 07:30:29;;;;;;;35.97;16.20;;;-1.00;99.90;;;;;;5030910;28;20606;-54
2020/12/11 07:32:55;;;;;;;37.50;16.10;;;-1.00;99.90;;;;;;5018996;28;20526;-53
2020/12/11 07:35:24;;;;;;;32.07;14.97;;;-0.90;99.90;;;;;;5020710;28;20436;-53
2020/12/11 07:37:54;;;;;;;49.87;17.93;;;-0.90;99.90;;;;;;5010726;28;21117;-51
2020/12/11 07:40:24;;;;;;;32.87;15.67;;;-0.90;99.90;;;;;;5015681;28;20521;-52
2020/12/11 07:42:53;;;;;;;49.00;15.33;;;-0.90;99.80;;;;;;5022513;28;20431;-52
2020/12/11 07:45:31;;;;;;;34.80;15.30;;;-0.80;99.80;;;;;;5016888;28;20916;-52
2020/12/11 07:48:00;;;;;;;30.40;13.40;;;-0.80;99.70;;;;;;5022783;28;20462;-54
2020/12/11 07:50:33;;;;;;;27.07;14.00;;;-0.80;99.20;;;;;;5021987;28;20446;-52
2020/12/11 07:53:09;;;;;;;33.47;14.27;;;-0.90;99.00;;;;;;5006315;28;20436;-53
2020/12/11 07:55:38;;;;;;;32.53;13.77;;;-0.90;99.30;;;;;;5020733;28;20432;-51
2020/12/11 07:58:04;;;;;;;27.93;13.70;;;-0.90;99.30;;;;;;5022629;28;20556;-53
2020/12/11 08:00:36;;;;;;;30.97;14.33;;;-0.80;99.50;;;;;;5018278;28;20445;-53
2020/12/11 08:03:07;;;;;;;34.20;14.80;;;-0.80;99.40;;;;;;5016474;28;20424;-56
2020/12/11 08:05:37;;;;;;;27.30;13.67;;;-0.80;99.50;;;;;;5021567;28;20429;-54
2020/12/11 08:08:04;;;;;;;29.60;13.83;;;-0.80;99.40;;;;;;5018479;28;21246;-54
2020/12/11 08:10:41;;;;;;;30.67;14.27;;;-0.80;99.30;;;;;;5004373;28;20533;-54
2020/12/11 08:13:17;;;;;;;27.60;13.67;;;-0.70;99.40;;;;;;5011802;28;20436;-55
2020/12/11 08:15:46;;;;;;;29.57;14.50;;;-0.70;99.30;;;;;;5017271;28;20440;-54
2020/12/11 08:18:24;;;;;;;34.27;14.93;;;-0.70;99.20;;;;;;5016476;28;20469;-53
2020/12/11 08:20:52;;;;;;;36.80;16.07;;;-0.70;99.20;;;;;;5023430;28;20444;-53
2020/12/11 08:23:17;;;;;;;36.00;17.07;;;-0.70;99.20;;;;;;5027982;28;20427;-54
2020/12/11 08:25:43;;;;;;;30.93;15.20;;;-0.70;99.40;;;;;;5022736;28;20782;-55
2020/12/11 08:28:09;;;;;;;31.13;14.80;;;-0.60;99.60;;;;;;5022896;28;20217;-54
2020/12/11 08:30:35;;;;;;;33.83;15.53;;;-0.60;99.50;;;;;;5024392;28;20614;-52
2020/12/11 08:33:10;;;;;;;35.20;15.33;;;-0.60;99.60;;;;;;5022029;28;20549;-53
2020/12/11 08:35:36;;;;;;;38.60;15.37;;;-0.60;99.50;;;;;;5023345;28;20710;-54
2020/12/11 08:38:05;;;;;;;30.57;15.03;;;-0.60;99.40;;;;;;5024434;28;20574;-54
2020/12/11 08:40:31;;;;;;;31.33;15.50;;;-0.50;99.50;;;;;;5024265;28;20435;-54
2020/12/11 08:45:44;;;;;;;35.57;15.50;;;-0.50;99.50;;;;;;5021528;28;20440;-54
2020/12/11 08:51:02;;;;;;;32.40;15.00;;;-0.40;99.50;;;;;;5025395;28;20478;-54
2020/12/11 08:53:34;;;;;;;30.97;14.80;;;-0.30;99.40;;;;;;5016257;28;20450;-53
2020/12/11 08:56:00;;;;;;;30.53;14.67;;;-0.20;99.30;;;;;;5019618;28;20436;-53
2020/12/11 08:58:26;;;;;;;34.00;15.70;;;-0.20;98.20;;;;;;5021533;28;20472;-53
2020/12/11 09:00:51;;;;;;;32.80;14.77;;;-0.20;98.70;;;;;;5016313;28;20622;-53
2020/12/11 09:03:17;;;;;;;34.83;14.80;;;-0.20;99.00;;;;;;5012145;28;20196;-53
2020/12/11 09:05:45;;;;;;;29.10;14.10;;;-0.10;99.00;;;;;;5024105;28;20173;-54
2020/12/11 09:08:14;;;;;;;29.00;13.63;;;0.00;98.90;;;;;;5022192;28;20735;-54
2020/12/11 09:10:39;;;;;;;31.80;14.93;;;0.10;98.50;;;;;;4999493;28;20451;-54
2020/12/11 09:13:06;;;;;;;30.77;14.57;;;0.10;98.20;;;;;;5008013;28;20444;-54
2020/12/11 09:15:32;;;;;;;30.77;14.50;;;0.20;98.00;;;;;;5017328;28;20204;-54
2020/12/11 09:17:58;;;;;;;32.27;15.67;;;0.20;97.80;;;;;;5015593;28;20472;-55
2020/12/11 09:20:23;;;;;;;30.80;15.73;;;0.20;97.70;;;;;;5022327;28;20282;-56
2020/12/11 09:22:49;;;;;;;30.47;15.20;;;0.20;97.80;;;;;;5022160;28;20193;-53
2020/12/11 09:25:15;;;;;;;35.87;15.93;;;0.30;97.90;;;;;;5019373;28;20622;-54
2020/12/11 09:27:43;;;;;;;30.97;15.27;;;0.30;97.80;;;;;;4998998;28;20219;-53
2020/12/11 09:33:03;;;;;;;30.53;14.90;;;0.40;97.80;;;;;;5018344;28;20921;-54
2020/12/11 09:35:26;;;;;;;29.50;13.03;;;0.40;97.70;;;;;;5013874;28;20439;-55
2020/12/11 09:37:55;;;;;;;28.40;15.13;;;0.40;97.50;;;;;;5017294;28;20510;-54
2020/12/11 09:40:50;;;;;;;30.67;16.27;;;0.50;97.40;;;;;;5016935;28;20451;-54
2020/12/11 09:46:29;;;;;;;28.00;14.27;;;0.50;97.30;;;;;;5025699;28;20439;-55
2020/12/11 09:49:03;;;;;;;36.97;15.27;;;0.60;97.30;;;;;;5027447;28;20444;-54
2020/12/11 09:54:11;;;;;;;31.00;14.60;;;0.50;97.10;;;;;;5022469;28;20937;-54
2020/12/11 09:56:37;;;;;;;36.90;17.20;;;0.60;97.00;;;;;;5021463;28;20434;-54
2020/12/11 09:59:22;;;;;;;35.40;15.27;;;0.60;97.10;;;;;;5017776;28;20463;-56
2020/12/11 10:02:11;;;;;;;33.30;15.37;;;0.60;97.10;;;;;;5031805;28;20431;-54
2020/12/11 10:04:36;;;;;;;29.33;14.10;;;0.60;97.20;;;;;;5026662;28;20848;-55
2020/12/11 10:07:05;;;;;;;34.83;16.60;;;0.70;96.90;;;;;;5027195;28;20554;-53
2020/12/11 10:09:31;;;;;;;30.70;14.80;;;0.80;96.70;;;;;;4997761;28;20267;-53
2020/12/11 10:12:03;;;;;;;32.97;15.30;;;0.80;96.80;;;;;;5011815;28;20639;-54
2020/12/11 10:14:34;;;;;;;32.07;15.67;;;0.90;97.00;;;;;;5022670;28;20519;-54
2020/12/11 10:16:59;;;;;;;27.30;14.07;;;1.00;96.60;;;;;;5026249;28;20424;-54
2020/12/11 10:19:25;;;;;;;35.50;16.97;;;1.00;96.40;;;;;;5021977;28;20518;-52
2020/12/11 10:21:53;;;;;;;32.13;15.87;;;1.00;96.40;;;;;;5022270;28;20268;-54
2020/12/11 10:24:22;;;;;;;34.37;16.57;;;1.00;96.20;;;;;;5016279;28;20477;-53
2020/12/11 10:26:49;;;;;;;32.43;15.53;;;1.00;96.00;;;;;;5019864;28;20428;-54
2020/12/11 10:29:15;;;;;;;32.13;15.63;;;1.00;95.90;;;;;;5023696;28;20477;-55
2020/12/11 10:31:42;;;;;;;32.50;15.23;;;1.10;95.30;;;;;;5031352;28;20996;-54
2020/12/11 10:34:12;;;;;;;35.87;15.83;;;1.00;95.70;;;;;;5030617;28;20174;-54
2020/12/11 10:36:38;;;;;;;34.57;17.30;;;1.00;96.10;;;;;;5023926;28;20442;-54
2020/12/11 10:39:06;;;;;;;33.77;16.53;;;1.00;96.20;;;;;;5008661;28;21246;-54
2020/12/11 10:41:32;;;;;;;35.47;16.60;;;1.00;96.40;;;;;;5013897;28;21717;-54
2020/12/11 10:43:57;;;;;;;30.90;15.43;;;1.00;96.30;;;;;;5018452;28;20447;-55
2020/12/11 10:46:24;;;;;;;31.90;15.40;;;1.00;96.20;;;;;;5017624;28;20325;-52
2020/12/11 10:48:50;;;;;;;35.23;15.33;;;1.00;96.40;;;;;;5023585;28;20876;-53
2020/12/11 10:51:16;;;;;;;34.33;15.60;;;1.10;96.40;;;;;;5020578;28;20566;-54
2020/12/11 10:53:43;;;;;;;31.13;15.23;;;1.20;96.10;;;;;;5014274;28;20258;-56
2020/12/11 10:56:10;;;;;;;29.17;14.60;;;1.30;95.60;;;;;;5014145;28;20437;-55
2020/12/11 10:58:36;;;;;;;26.00;13.30;;;1.50;95.60;;;;;;5011261;28;20458;-54
2020/12/11 11:01:04;;;;;;;31.47;16.80;;;1.60;95.60;;;;;;5026198;28;21254;-53
2020/12/11 11:03:30;;;;;;;34.23;15.07;;;1.80;95.60;;;;;;5022648;28;20425;-54
2020/12/11 11:06:01;;;;;;;33.60;15.80;;;1.90;95.00;;;;;;5022817;28;20436;-55
2020/12/11 11:08:37;;;;;;;35.10;15.90;;;2.00;94.70;;;;;;5013857;28;20833;-54
2020/12/11 11:11:03;;;;;;;28.60;14.90;;;2.10;94.80;;;;;;5014334;28;20494;-54
2020/12/11 11:13:45;;;;;;;29.27;14.67;;;2.30;94.50;;;;;;5013930;28;20567;-54
2020/12/11 11:16:11;;;;;;;27.70;15.03;;;2.40;94.20;;;;;;5021576;28;20587;-53
2020/12/11 11:18:44;;;;;;;33.10;16.67;;;2.60;93.60;;;;;;5026091;28;20564;-54
2020/12/11 11:29:18;;;;;;;31.00;15.10;;;2.40;92.90;;;;;;4996761;28;20760;-53
2020/12/11 11:31:47;;;;;;;31.03;16.60;;;2.30;93.20;;;;;;5020355;28;20433;-61
2020/12/11 11:34:15;;;;;;;36.33;16.93;;;2.30;93.40;;;;;;5025121;28;20185;-56
2020/12/11 11:36:40;;;;;;;38.13;16.43;;;2.30;93.30;;;;;;5014805;28;20926;-57
2020/12/11 11:39:06;;;;;;;37.30;18.07;;;2.30;93.50;;;;;;5025121;28;20467;-55
2020/12/11 11:41:50;;;;;;;35.57;17.20;;;2.30;93.60;;;;;;5008481;28;20654;-57
2020/12/11 11:46:45;;;;;;;28.20;15.07;;;2.10;93.60;;;;;;5031597;28;20438;-54
2020/12/11 11:49:13;;;;;;;32.97;16.03;;;2.00;93.60;;;;;;5022134;28;20460;-58
2020/12/11 11:51:50;;;;;;;29.70;15.03;;;1.90;93.80;;;;;;5006469;28;20189;-54
2020/12/11 11:54:15;;;;;;;28.57;14.90;;;1.80;93.80;;;;;;5025140;28;20569;-56
2020/12/11 11:56:41;;;;;;;33.10;16.13;;;1.60;94.50;;;;;;5019486;28;20508;-55
2020/12/11 11:59:07;;;;;;;33.20;16.60;;;1.60;94.70;;;;;;5020129;28;20635;-56
2020/12/11 12:01:33;;;;;;;32.30;16.67;;;1.50;95.10;;;;;;5024923;28;20739;-56
2020/12/11 12:03:58;;;;;;;32.17;13.80;;;1.50;95.50;;;;;;5017271;28;20244;-58
2020/12/11 12:06:24;;;;;;;33.17;16.07;;;1.50;95.60;;;;;;5011464;28;20217;-56
2020/12/11 12:08:50;;;;;;;28.10;13.30;;;1.50;95.60;;;;;;5016289;28;20233;-55
2020/12/11 12:11:16;;;;;;;26.90;13.60;;;1.60;95.40;;;;;;5008151;28;20197;-58
2020/12/11 12:13:41;;;;;;;31.30;13.97;;;1.60;94.70;;;;;;4980780;28;20446;-59
2020/12/11 12:16:07;;;;;;;33.23;15.67;;;1.60;94.70;;;;;;5019507;28;20195;-55
2020/12/11 12:18:37;;;;;;;28.77;15.03;;;1.50;94.50;;;;;;5016228;28;20302;-55
2020/12/11 12:21:08;;;;;;;30.50;15.47;;;1.50;94.90;;;;;;5011266;28;20182;-55
2020/12/11 12:29:11;;;;;;;30.63;15.67;;;1.50;95.40;;;;;;5015306;28;20553;-55
2020/12/11 12:31:50;;;;;;;28.00;14.67;;;1.50;95.40;;;;;;5021275;28;20448;-54
2020/12/11 12:39:37;;;;;;;29.37;15.03;;;1.20;95.80;;;;;;5018238;28;20907;-55
2020/12/11 12:44:48;;;;;;;29.60;14.13;;;1.20;95.80;;;;;;4999912;28;20479;-53
2020/12/11 12:47:13;;;;;;;31.73;15.80;;;1.20;96.10;;;;;;4999700;28;21041;-52
2020/12/11 12:49:39;;;;;;;33.00;15.90;;;1.20;96.50;;;;;;5021559;28;20532;-54
2020/12/11 12:52:05;;;;;;;32.40;14.90;;;1.30;96.70;;;;;;4992774;28;20453;-54
2020/12/11 12:54:31;;;;;;;32.03;14.70;;;1.30;96.50;;;;;;4987941;28;20464;-56
2020/12/11 12:57:00;;;;;;;26.07;13.33;;;1.40;96.40;;;;;;5010911;28;20198;-57
2020/12/11 13:02:42;;;;;;;30.50;16.10;;;1.50;96.10;;;;;;4993973;28;20437;-55
2020/12/11 13:05:11;;;;;;;26.97;14.20;;;1.50;95.70;;;;;;5011182;28;20431;-57
2020/12/11 13:07:37;;;;;;;32.50;15.80;;;1.40;95.50;;;;;;5007081;28;20497;-57
2020/12/11 13:10:07;;;;;;;30.50;14.13;;;1.40;95.80;;;;;;5015722;28;20516;-58
2020/12/11 13:12:33;;;;;;;27.10;14.10;;;1.40;95.80;;;;;;5013013;28;20445;-58
2020/12/11 13:15:15;;;;;;;30.70;15.10;;;1.40;95.70;;;;;;5010367;28;20441;-57
2020/12/11 13:17:43;;;;;;;28.07;13.90;;;1.30;95.90;;;;;;5008498;28;20468;-56